Time;durP1;ratioP1;P1;durP2;ratioP2;P2;SDS_P1;SDS_P2;PMS_P1;PMS_P2;Temp;Humidity;BMP_temperature;BMP_pressure;BME280_temperature;BME280_humidity;BME280_pressure;Samples;Min_cycle;Max_cycle;Signal;HPM_P1;HPM_P2
2022/04/03 00:01:28;;;;;;;3.28;2.03;;;2.90;59.10;;;;;;5017736;28;20753;-92
2022/04/03 00:03:54;;;;;;;3.40;2.60;;;2.90;59.20;;;;;;5019925;28;20209;-92
2022/04/03 00:06:21;;;;;;;5.13;2.17;;;2.80;59.50;;;;;;5017972;28;20202;-92
2022/04/03 00:08:48;;;;;;;3.20;2.28;;;3.00;59.10;;;;;;5016715;28;20185;-92
2022/04/03 00:11:14;;;;;;;6.90;2.72;;;3.00;58.90;;;;;;5021830;28;20185;-93
2022/04/03 00:13:39;;;;;;;4.47;2.28;;;3.10;58.90;;;;;;5018424;28;20690;-93
2022/04/03 00:16:06;;;;;;;4.27;2.90;;;3.00;59.00;;;;;;5017799;28;20202;-93
2022/04/03 00:18:33;;;;;;;3.58;2.25;;;2.80;59.20;;;;;;5018781;28;20409;-93
2022/04/03 00:20:59;;;;;;;6.53;2.40;;;2.80;59.40;;;;;;5022166;28;20252;-93
2022/04/03 00:23:25;;;;;;;4.28;2.50;;;2.80;59.30;;;;;;5020785;28;20194;-93
2022/04/03 00:25:52;;;;;;;13.20;2.90;;;2.90;59.60;;;;;;5018774;28;20182;-93
2022/04/03 00:28:21;;;;;;;4.97;2.58;;;2.80;59.40;;;;;;5016953;28;20241;-93
2022/04/03 00:30:47;;;;;;;6.53;3.20;;;2.60;59.60;;;;;;5001955;28;20186;-93
2022/04/03 00:33:13;;;;;;;8.73;2.57;;;2.60;59.90;;;;;;5019838;28;20296;-93
2022/04/03 00:35:39;;;;;;;3.38;2.65;;;2.50;60.20;;;;;;5018107;28;20945;-93
2022/04/03 00:38:06;;;;;;;5.63;3.10;;;2.40;60.50;;;;;;5024313;28;20186;-94
2022/04/03 00:40:31;;;;;;;6.18;2.55;;;2.30;60.70;;;;;;5026635;28;20202;-93
2022/04/03 00:42:57;;;;;;;7.23;2.20;;;2.40;60.80;;;;;;5035113;28;20217;-93
2022/04/03 00:45:23;;;;;;;3.83;2.17;;;2.50;60.80;;;;;;5031689;28;20477;-94
2022/04/03 00:47:52;;;;;;;5.27;2.60;;;2.60;60.60;;;;;;5008897;28;20441;-94
2022/04/03 00:50:18;;;;;;;3.70;2.10;;;2.50;61.00;;;;;;5013918;28;20466;-93
2022/04/03 00:52:44;;;;;;;2.95;2.50;;;2.40;61.40;;;;;;5032784;28;20206;-93
2022/04/03 00:55:10;;;;;;;7.33;2.60;;;2.30;61.70;;;;;;5032284;28;20214;-93
2022/04/03 01:00:53;;;;;;;4.38;2.45;;;2.30;62.20;;;;;;4985402;28;20200;-93
2022/04/03 01:03:19;;;;;;;5.03;3.50;;;2.30;62.20;;;;;;5039767;28;20211;-93
2022/04/03 01:05:45;;;;;;;6.23;2.70;;;2.40;62.10;;;;;;5037804;28;20183;-94
2022/04/03 01:08:11;;;;;;;2.80;2.40;;;2.50;62.00;;;;;;5023781;28;20557;-92
2022/04/03 01:10:38;;;;;;;3.53;2.30;;;2.50;61.90;;;;;;5040370;28;20174;-93
2022/04/03 01:13:04;;;;;;;6.93;2.58;;;2.50;61.60;;;;;;5039616;28;20437;-93
2022/04/03 01:15:30;;;;;;;5.18;2.40;;;2.50;61.50;;;;;;5038085;28;20258;-94
2022/04/03 01:17:56;;;;;;;3.70;2.67;;;2.40;61.50;;;;;;5037310;28;20183;-93
2022/04/03 01:20:22;;;;;;;3.77;2.87;;;2.60;61.50;;;;;;5032713;28;20492;-93
2022/04/03 01:22:47;;;;;;;2.97;2.50;;;2.70;61.30;;;;;;5032324;28;20198;-93
2022/04/03 01:25:14;;;;;;;4.90;2.80;;;2.50;61.30;;;;;;5030492;28;20428;-93
2022/04/03 01:27:40;;;;;;;3.55;3.25;;;2.40;61.50;;;;;;5028547;28;20716;-92
2022/04/03 01:30:07;;;;;;;5.22;3.05;;;2.40;61.80;;;;;;5028550;28;20190;-93
2022/04/03 01:32:33;;;;;;;6.95;2.70;;;2.30;62.00;;;;;;5030522;28;20198;-93
2022/04/03 01:35:01;;;;;;;7.47;2.90;;;2.30;62.30;;;;;;5035218;28;20185;-93
2022/04/03 01:37:28;;;;;;;4.43;2.55;;;2.20;62.40;;;;;;5030579;28;20163;-93
2022/04/03 01:39:54;;;;;;;3.90;2.63;;;2.20;63.30;;;;;;5031015;28;20218;-93
2022/04/03 01:42:20;;;;;;;4.60;2.30;;;2.20;62.60;;;;;;5032184;28;20280;-93
2022/04/03 01:44:45;;;;;;;4.00;2.27;;;2.20;62.70;;;;;;5035592;28;20194;-93
2022/04/03 01:47:12;;;;;;;3.20;2.90;;;2.20;62.80;;;;;;5038931;28;20429;-92
2022/04/03 01:49:37;;;;;;;3.35;2.67;;;2.30;62.90;;;;;;5039964;28;20421;-93
2022/04/03 01:52:04;;;;;;;10.00;3.33;;;2.30;63.00;;;;;;5040267;28;20214;-94
2022/04/03 01:54:30;;;;;;;6.78;2.63;;;2.30;63.10;;;;;;5040325;28;20429;-90
2022/04/03 01:56:56;;;;;;;9.23;3.83;;;2.30;63.10;;;;;;5040361;28;20174;-95
2022/04/03 01:59:21;;;;;;;6.17;3.70;;;2.40;63.20;;;;;;5040356;28;20448;-94
2022/04/03 02:01:48;;;;;;;5.10;2.67;;;2.40;63.30;;;;;;5040013;28;20213;-93
2022/04/03 02:04:13;;;;;;;5.18;2.55;;;2.30;63.40;;;;;;5040161;28;20417;-93
2022/04/03 02:06:40;;;;;;;3.73;3.43;;;2.30;63.60;;;;;;5038073;28;20198;-93
2022/04/03 02:09:08;;;;;;;4.82;2.60;;;2.20;63.80;;;;;;5027643;28;20429;-93
2022/04/03 02:11:35;;;;;;;6.72;3.83;;;2.30;64.00;;;;;;5028351;28;20314;-92
2022/04/03 02:14:01;;;;;;;4.40;3.20;;;2.30;64.00;;;;;;5028057;28;20198;-94
2022/04/03 02:16:27;;;;;;;6.90;3.80;;;2.40;63.90;;;;;;5028317;28;20236;-94
2022/04/03 02:18:52;;;;;;;5.40;3.50;;;2.40;63.90;;;;;;5028194;28;20183;-93
2022/04/03 02:21:18;;;;;;;12.43;3.10;;;2.40;63.80;;;;;;5027203;28;20468;-93
2022/04/03 02:23:44;;;;;;;2.93;2.63;;;2.40;63.90;;;;;;5032605;28;20202;-93
2022/04/03 02:26:10;;;;;;;8.87;3.10;;;2.30;64.00;;;;;;5029635;28;20182;-93
2022/04/03 02:28:36;;;;;;;5.60;2.67;;;2.40;64.10;;;;;;5029788;28;20442;-93
2022/04/03 02:31:02;;;;;;;4.13;3.35;;;2.30;64.10;;;;;;5027153;28;20421;-93
2022/04/03 02:33:29;;;;;;;7.63;2.80;;;2.40;64.10;;;;;;5025952;28;20217;-92
2022/04/03 02:35:55;;;;;;;8.10;3.50;;;2.40;64.10;;;;;;5026060;28;20925;-92
2022/04/03 02:38:43;;;;;;;4.63;2.87;;;2.50;63.90;;;;;;5028115;28;20179;-93
2022/04/03 02:41:08;;;;;;;5.20;2.90;;;2.50;63.60;;;;;;5029070;28;20202;-93
2022/04/03 02:43:34;;;;;;;5.97;3.30;;;2.60;63.50;;;;;;5030498;28;20274;-93
2022/04/03 02:46:00;;;;;;;3.63;2.83;;;2.60;63.30;;;;;;5030405;28;20448;-94
2022/04/03 02:48:26;;;;;;;6.53;2.90;;;2.60;63.20;;;;;;5031534;28;20417;-93
2022/04/03 02:50:52;;;;;;;4.57;3.67;;;2.70;63.20;;;;;;5026467;28;20429;-92
2022/04/03 02:53:17;;;;;;;7.47;2.37;;;2.70;63.10;;;;;;5025588;28;20444;-93
2022/04/03 02:55:43;;;;;;;2.50;2.30;;;2.80;63.10;;;;;;5025345;28;20186;-93
2022/04/03 02:58:09;;;;;;;5.90;2.70;;;2.80;63.00;;;;;;5025427;28;20456;-93
2022/04/03 03:00:35;;;;;;;4.17;3.17;;;2.70;63.00;;;;;;5025884;28;20580;-93
2022/04/03 03:03:02;;;;;;;5.57;2.60;;;2.70;63.10;;;;;;5026225;28;20914;-93
2022/04/03 03:05:28;;;;;;;4.85;2.47;;;2.70;63.30;;;;;;5029204;28;20182;-93
2022/04/03 03:07:54;;;;;;;3.50;2.50;;;2.60;63.30;;;;;;5018630;28;20210;-93
2022/04/03 03:10:21;;;;;;;4.77;2.77;;;2.60;63.40;;;;;;5031084;28;20189;-93
2022/04/03 03:12:47;;;;;;;3.83;2.25;;;2.60;63.40;;;;;;5028493;28;20213;-93
2022/04/03 03:15:14;;;;;;;6.00;2.30;;;2.80;63.30;;;;;;5027804;28;20186;-93
2022/04/03 03:17:40;;;;;;;6.80;2.80;;;2.70;63.40;;;;;;5029243;28;20429;-93
2022/04/03 03:20:07;;;;;;;3.00;2.75;;;2.50;63.80;;;;;;5029240;28;20190;-93
2022/04/03 03:22:33;;;;;;;3.03;2.63;;;2.60;63.90;;;;;;5035650;28;20205;-93
2022/04/03 03:24:59;;;;;;;3.17;2.55;;;2.50;64.00;;;;;;5032274;28;20198;-93
2022/04/03 03:27:25;;;;;;;7.10;2.90;;;2.60;64.10;;;;;;5033301;28;20282;-93
2022/04/03 03:29:52;;;;;;;5.93;2.10;;;2.60;64.10;;;;;;5035221;28;20437;-93
2022/04/03 03:32:17;;;;;;;5.85;2.78;;;2.60;64.00;;;;;;5034671;28;20450;-93
2022/04/03 03:34:43;;;;;;;3.80;2.33;;;2.50;64.10;;;;;;5018053;28;20191;-93
2022/04/03 03:37:09;;;;;;;2.67;2.47;;;2.50;64.10;;;;;;5033370;28;20432;-93
2022/04/03 03:39:35;;;;;;;3.10;2.80;;;2.60;64.10;;;;;;5036978;28;20210;-93
2022/04/03 03:42:02;;;;;;;8.07;2.70;;;2.70;64.00;;;;;;5037215;28;20461;-94
2022/04/03 03:44:28;;;;;;;4.15;2.80;;;2.60;63.90;;;;;;5031690;28;20265;-94
2022/04/03 03:46:54;;;;;;;4.57;2.47;;;2.60;64.00;;;;;;5032033;28;20186;-93
2022/04/03 03:49:20;;;;;;;3.00;2.30;;;2.50;64.10;;;;;;5028900;28;20450;-93
2022/04/03 03:51:46;;;;;;;6.20;2.20;;;2.50;64.30;;;;;;5030380;28;20493;-93
2022/04/03 03:54:12;;;;;;;3.45;2.10;;;2.50;64.40;;;;;;5031230;28;20794;-93
2022/04/03 03:56:43;;;;;;;2.40;2.20;;;2.50;64.30;;;;;;5028740;28;20205;-93
2022/04/03 03:59:09;;;;;;;2.97;2.30;;;2.30;64.30;;;;;;5030711;28;20661;-93
2022/04/03 04:01:35;;;;;;;3.90;2.53;;;2.40;64.50;;;;;;5028982;28;20210;-93
2022/04/03 04:04:03;;;;;;;7.70;2.95;;;2.40;64.60;;;;;;5029929;28;20441;-92
2022/04/03 04:06:36;;;;;;;5.40;2.60;;;2.50;64.60;;;;;;5031470;28;20214;-93
2022/04/03 04:09:01;;;;;;;4.18;3.00;;;2.60;64.60;;;;;;5033506;28;20171;-93
2022/04/03 04:11:27;;;;;;;3.40;2.70;;;2.50;64.50;;;;;;5032134;28;20265;-93
2022/04/03 04:13:53;;;;;;;5.43;2.77;;;2.60;64.60;;;;;;5031743;28;20452;-93
2022/04/03 04:16:19;;;;;;;4.80;2.50;;;2.50;64.60;;;;;;5032729;28;20193;-93
2022/04/03 04:18:44;;;;;;;5.90;2.70;;;2.50;64.80;;;;;;5028538;28;20432;-93
2022/04/03 04:21:11;;;;;;;5.40;3.20;;;2.50;64.80;;;;;;5028515;28;20194;-93
2022/04/03 04:23:37;;;;;;;28.55;3.80;;;2.40;64.90;;;;;;5036040;28;20484;-93
2022/04/03 04:26:03;;;;;;;4.73;2.10;;;2.30;65.00;;;;;;5032812;28;20187;-93
2022/04/03 04:28:29;;;;;;;4.20;2.80;;;2.40;65.30;;;;;;5036277;28;20198;-93
2022/04/03 04:31:01;;;;;;;3.88;2.30;;;2.40;65.30;;;;;;5037075;28;20428;-94
2022/04/03 04:33:36;;;;;;;4.70;2.72;;;2.40;65.40;;;;;;5039448;28;20232;-93
2022/04/03 04:36:02;;;;;;;6.95;2.75;;;2.40;65.60;;;;;;5041382;28;20173;-93
2022/04/03 04:38:47;;;;;;;5.57;2.30;;;2.30;65.70;;;;;;5041431;28;20190;-92
2022/04/03 04:41:13;;;;;;;3.25;2.70;;;2.40;65.90;;;;;;5041381;28;20186;-94
2022/04/03 04:43:42;;;;;;;3.70;2.90;;;2.30;66.00;;;;;;5039074;28;20204;-92
2022/04/03 04:46:09;;;;;;;5.35;2.70;;;2.30;66.00;;;;;;5034298;28;20445;-93
2022/04/03 04:48:35;;;;;;;4.88;2.80;;;2.30;66.20;;;;;;5030170;28;20175;-94
2022/04/03 04:51:09;;;;;;;3.33;3.03;;;2.20;66.40;;;;;;5030055;28;20254;-93
2022/04/03 04:53:36;;;;;;;9.90;3.05;;;2.30;66.60;;;;;;5027030;28;20436;-91
2022/04/03 04:56:01;;;;;;;3.53;2.83;;;2.20;66.50;;;;;;5025611;28;20236;-92
2022/04/03 04:58:31;;;;;;;4.23;2.97;;;2.30;66.70;;;;;;5028440;28;20421;-93
2022/04/03 05:00:57;;;;;;;6.35;2.88;;;2.30;67.00;;;;;;5034522;28;20226;-93
2022/04/03 05:03:25;;;;;;;4.60;3.30;;;2.30;67.00;;;;;;5032019;28;20744;-93
2022/04/03 05:05:57;;;;;;;5.22;2.42;;;2.30;67.10;;;;;;5040475;28;20422;-94
2022/04/03 05:08:26;;;;;;;6.00;3.80;;;2.30;67.00;;;;;;5040798;28;20181;-93
2022/04/03 05:10:56;;;;;;;3.88;2.67;;;2.30;67.10;;;;;;5024729;28;20167;-94
2022/04/03 05:13:25;;;;;;;5.13;2.70;;;2.50;67.20;;;;;;5024618;28;20190;-92
2022/04/03 05:15:53;;;;;;;6.07;2.83;;;2.50;66.80;;;;;;5041265;28;20163;-93
2022/04/03 05:18:21;;;;;;;3.20;2.33;;;2.80;66.30;;;;;;5041152;28;20194;-94
2022/04/03 05:20:48;;;;;;;4.32;2.88;;;3.00;66.00;;;;;;5008797;28;20207;-93
2022/04/03 05:23:17;;;;;;;6.43;3.17;;;3.00;65.40;;;;;;5039130;28;20667;-92
2022/04/03 05:25:44;;;;;;;3.30;2.83;;;3.00;65.50;;;;;;5028503;28;20183;-93
2022/04/03 05:28:10;;;;;;;6.38;3.45;;;2.90;65.40;;;;;;5025592;28;20238;-93
2022/04/03 05:30:36;;;;;;;3.60;3.00;;;2.80;65.60;;;;;;5028677;28;20198;-94
2022/04/03 13:28:31;;;;;;;1.63;1.10;;;9.40;40.50;;;;;;844495;22;20519;-95
2022/04/03 13:30:57;;;;;;;1.20;1.00;;;9.60;40.00;;;;;;5040863;28;20583;-93
2022/04/03 13:33:23;;;;;;;1.60;1.07;;;10.10;39.60;;;;;;5008476;28;20202;-93
2022/04/03 13:35:48;;;;;;;3.47;1.20;;;9.90;38.60;;;;;;5028578;28;20412;-92
2022/04/03 13:38:14;;;;;;;1.50;1.40;;;9.90;38.60;;;;;;5029164;28;20178;-92
2022/04/03 13:40:42;;;;;;;2.33;1.03;;;9.70;39.50;;;;;;5025570;28;21047;-93
2022/04/03 13:43:10;;;;;;;2.22;1.70;;;9.80;40.40;;;;;;5024835;28;20299;-92
2022/04/03 13:48:26;;;;;;;2.50;1.65;;;9.40;43.80;;;;;;5045744;28;20161;-92
2022/04/03 13:50:57;;;;;;;1.17;1.08;;;9.40;44.90;;;;;;5028979;28;20228;-92
2022/04/03 13:53:23;;;;;;;2.05;1.58;;;9.30;45.10;;;;;;5028857;28;20213;-92
2022/04/03 13:55:50;;;;;;;1.83;1.38;;;9.40;45.40;;;;;;5033000;28;20182;-94
2022/04/03 13:58:17;;;;;;;1.42;1.30;;;9.50;45.10;;;;;;5042087;28;20190;-95
2022/04/03 14:00:43;;;;;;;3.20;1.40;;;9.40;44.60;;;;;;5043320;28;20166;-95
2022/04/03 14:03:09;;;;;;;4.65;1.52;;;9.30;44.10;;;;;;5043510;28;20212;-94
2022/04/03 14:05:35;;;;;;;1.40;1.30;;;9.40;43.20;;;;;;5042708;28;20173;-95
2022/04/03 14:08:03;;;;;;;1.40;1.30;;;9.40;42.80;;;;;;5043499;28;20166;-92
2022/04/03 14:10:31;;;;;;;2.47;1.00;;;9.60;42.90;;;;;;5060313;28;20185;-95
2022/04/03 16:53:29;;;;;;;2.67;1.50;;;8.30;57.00;;;;;;5061559;28;20213;-91
2022/04/03 16:55:55;;;;;;;1.55;1.10;;;8.30;56.10;;;;;;5047222;28;20173;-90
2022/04/03 16:58:20;;;;;;;4.80;1.70;;;8.30;55.90;;;;;;5046223;28;20176;-92
2022/04/03 17:00:49;;;;;;;1.80;1.70;;;8.40;55.90;;;;;;5037479;28;20420;-92
2022/04/03 17:03:15;;;;;;;1.95;1.52;;;8.70;55.80;;;;;;5048139;28;20511;-91
2022/04/03 17:05:41;;;;;;;3.03;1.60;;;8.80;55.40;;;;;;5031078;28;20178;-91
2022/04/03 17:08:07;;;;;;;5.60;1.67;;;8.80;54.60;;;;;;5026842;28;20425;-92
2022/04/03 17:10:33;;;;;;;3.47;1.13;;;8.60;53.90;;;;;;5027735;28;20978;-91
2022/04/03 17:12:59;;;;;;;1.50;1.40;;;8.50;53.90;;;;;;5010003;28;20206;-91
2022/04/03 17:15:26;;;;;;;1.50;1.30;;;8.40;53.90;;;;;;5031721;28;20189;-92
2022/04/03 17:17:52;;;;;;;2.47;1.33;;;8.20;54.00;;;;;;5050268;28;20419;-92
2022/04/03 17:20:19;;;;;;;4.40;1.63;;;8.10;53.90;;;;;;5055299;28;20185;-91
2022/04/03 17:22:46;;;;;;;1.30;1.20;;;8.10;54.20;;;;;;5042970;28;20578;-91
2022/04/03 17:25:12;;;;;;;2.90;1.30;;;8.00;54.60;;;;;;5042637;28;20185;-93
2022/04/03 17:27:38;;;;;;;2.73;1.17;;;8.00;54.80;;;;;;5044949;28;20204;-93
2022/04/03 17:30:05;;;;;;;2.37;1.20;;;7.90;54.30;;;;;;5043965;28;20181;-91
2022/04/03 17:32:31;;;;;;;2.25;1.30;;;7.90;54.70;;;;;;5042792;28;20205;-90
2022/04/03 17:34:56;;;;;;;4.57;1.40;;;7.90;55.00;;;;;;5053536;28;20193;-90
2022/04/03 17:37:22;;;;;;;7.40;2.73;;;7.90;55.70;;;;;;5028043;28;20182;-91
2022/04/03 17:39:49;;;;;;;3.17;1.30;;;7.80;56.60;;;;;;5026877;28;20423;-92
2022/04/03 17:42:18;;;;;;;3.58;1.55;;;7.80;56.90;;;;;;5043207;28;20487;-92
2022/04/03 17:44:44;;;;;;;5.05;1.13;;;7.80;57.30;;;;;;5022095;28;20178;-92
2022/04/03 17:47:10;;;;;;;1.80;1.60;;;7.80;57.50;;;;;;5038203;28;20174;-91
2022/04/03 17:49:35;;;;;;;2.93;1.93;;;7.70;57.70;;;;;;5021267;28;20419;-89
2022/04/03 17:52:01;;;;;;;5.63;1.63;;;7.70;57.80;;;;;;5039888;28;20523;-89
2022/04/03 17:54:27;;;;;;;2.50;1.43;;;7.70;57.90;;;;;;5039364;28;20208;-89
2022/04/03 17:56:53;;;;;;;1.90;1.13;;;7.70;57.40;;;;;;5038363;28;20178;-89
2022/04/03 17:59:19;;;;;;;3.70;1.73;;;7.70;57.30;;;;;;5020562;28;20971;-89
2022/04/03 18:01:44;;;;;;;4.27;1.53;;;7.70;57.50;;;;;;5021840;28;20201;-90
2022/04/03 18:04:12;;;;;;;2.53;1.33;;;7.60;57.30;;;;;;5020017;28;20440;-89
2022/04/03 18:06:41;;;;;;;1.50;1.40;;;7.50;57.30;;;;;;5019900;28;20170;-90
2022/04/03 18:09:08;;;;;;;3.47;1.70;;;7.50;57.30;;;;;;5020108;28;20260;-89
2022/04/03 18:11:35;;;;;;;2.20;1.30;;;7.50;57.40;;;;;;5037817;28;20220;-90
2022/04/03 18:14:01;;;;;;;2.75;1.23;;;7.40;57.00;;;;;;5037609;28;20201;-90
2022/04/03 18:16:28;;;;;;;1.60;1.50;;;7.30;57.00;;;;;;5020115;28;20185;-90
2022/04/03 18:18:54;;;;;;;2.42;1.40;;;7.30;56.90;;;;;;5022804;28;20177;-90
2022/04/03 18:21:25;;;;;;;3.90;2.40;;;7.30;56.90;;;;;;5039729;28;20197;-90
2022/04/03 18:23:51;;;;;;;7.57;1.92;;;7.40;56.60;;;;;;5039497;28;20526;-90
2022/04/03 18:26:18;;;;;;;2.70;1.35;;;7.30;56.90;;;;;;5041704;28;20766;-88
2022/04/03 18:28:45;;;;;;;1.70;1.60;;;7.30;55.80;;;;;;5035295;28;20162;-89
2022/04/03 18:31:12;;;;;;;4.30;2.47;;;7.30;55.60;;;;;;5037427;28;20185;-92
2022/04/03 18:33:39;;;;;;;2.85;1.95;;;7.30;55.60;;;;;;5012110;28;20224;-91
2022/04/03 18:36:07;;;;;;;2.15;1.20;;;7.10;55.60;;;;;;5023312;28;20276;-92
2022/04/03 18:38:34;;;;;;;5.50;2.28;;;7.00;56.00;;;;;;5022234;28;20276;-92
2022/04/03 18:41:01;;;;;;;3.95;2.40;;;7.10;56.20;;;;;;5040481;28;20386;-92
2022/04/03 18:43:27;;;;;;;6.78;4.45;;;7.20;56.20;;;;;;5022222;28;20593;-91
2022/04/03 18:45:53;;;;;;;6.65;2.67;;;7.20;56.30;;;;;;5022319;28;20226;-92
2022/04/03 18:48:19;;;;;;;7.90;4.28;;;7.10;56.40;;;;;;5023021;28;20181;-91
2022/04/03 18:50:46;;;;;;;11.37;4.93;;;7.00;56.50;;;;;;5041039;28;20241;-91
2022/04/03 18:53:12;;;;;;;3.25;2.50;;;7.00;56.70;;;;;;5024564;28;20452;-92
2022/04/03 18:55:41;;;;;;;3.15;2.00;;;7.00;56.90;;;;;;5028253;28;20182;-92
2022/04/03 18:58:08;;;;;;;6.55;1.77;;;7.00;57.00;;;;;;5048234;28;20186;-92
2022/04/03 19:00:34;;;;;;;2.75;2.00;;;7.00;57.20;;;;;;5028759;28;20209;-92
2022/04/03 19:03:01;;;;;;;3.90;1.83;;;6.90;57.50;;;;;;5010063;28;20213;-91
2022/04/03 19:05:27;;;;;;;2.53;2.33;;;6.90;57.60;;;;;;5021871;28;20178;-93
2022/04/03 19:07:53;;;;;;;3.10;1.63;;;6.90;57.50;;;;;;5041984;28;20180;-92
2022/04/03 19:10:18;;;;;;;5.37;1.57;;;6.90;57.60;;;;;;5020969;28;20182;-91
2022/04/03 19:12:44;;;;;;;5.13;1.47;;;6.90;57.60;;;;;;5007348;28;20231;-92
2022/04/03 19:15:19;;;;;;;2.80;1.70;;;6.90;57.60;;;;;;5023123;28;20424;-92
2022/04/03 19:17:45;;;;;;;2.28;1.73;;;6.90;57.60;;;;;;5023361;28;20400;-91
2022/04/03 19:20:11;;;;;;;2.03;1.67;;;6.80;57.60;;;;;;5048025;28;20556;-91
2022/04/03 19:22:37;;;;;;;3.00;1.70;;;6.80;57.80;;;;;;5044486;28;20476;-91
2022/04/03 19:25:04;;;;;;;5.30;1.83;;;6.80;57.90;;;;;;5031493;28;20431;-91
2022/04/03 19:27:30;;;;;;;1.73;1.63;;;6.80;58.30;;;;;;5047836;28;20404;-92
2022/04/03 19:29:55;;;;;;;3.25;2.10;;;6.80;58.50;;;;;;5028556;28;20192;-92
2022/04/03 19:32:21;;;;;;;2.93;2.33;;;6.90;58.60;;;;;;5035186;28;20205;-92
2022/04/03 19:34:48;;;;;;;4.00;2.60;;;6.80;58.80;;;;;;5037914;28;20424;-94
2022/04/03 19:37:14;;;;;;;3.10;2.42;;;6.80;59.00;;;;;;5041407;28;20429;-92
2022/04/03 19:39:41;;;;;;;3.90;3.00;;;6.90;59.30;;;;;;5041634;28;20190;-93
2022/04/03 19:42:08;;;;;;;3.75;3.22;;;6.90;59.30;;;;;;5041611;28;20499;-95
2022/04/03 19:44:33;;;;;;;4.93;2.85;;;6.90;59.40;;;;;;5041821;28;20178;-93
2022/04/03 19:46:59;;;;;;;3.23;2.50;;;6.90;59.50;;;;;;5041687;28;20166;-93
2022/04/03 19:49:29;;;;;;;7.50;2.67;;;6.90;59.70;;;;;;5041534;28;20432;-92
2022/04/03 19:51:59;;;;;;;7.25;2.47;;;6.90;59.70;;;;;;5040320;28;20197;-92
2022/04/03 19:54:26;;;;;;;3.50;2.90;;;6.80;60.00;;;;;;5045893;28;20177;-91
2022/04/03 19:56:53;;;;;;;4.65;2.90;;;6.70;60.50;;;;;;5024451;28;20548;-91
2022/04/03 19:59:19;;;;;;;5.15;2.90;;;6.70;60.90;;;;;;5023212;28;20181;-91
2022/04/03 20:01:45;;;;;;;8.57;4.78;;;6.80;61.20;;;;;;5027037;28;20212;-91
2022/04/03 20:04:11;;;;;;;3.13;2.33;;;6.70;61.50;;;;;;5021692;28;20251;-92
2022/04/03 20:06:38;;;;;;;6.60;3.25;;;6.80;61.70;;;;;;5024452;28;20200;-92
2022/04/03 20:09:06;;;;;;;3.55;2.40;;;6.80;61.80;;;;;;5025981;28;20188;-91
2022/04/03 20:11:32;;;;;;;6.13;3.10;;;6.70;62.00;;;;;;5025795;28;20213;-90
2022/04/03 20:13:58;;;;;;;4.82;3.00;;;6.60;62.30;;;;;;5026467;28;20201;-89
2022/04/03 20:16:24;;;;;;;6.13;4.30;;;6.60;62.60;;;;;;5032694;28;20268;-89
2022/04/03 20:18:50;;;;;;;6.35;3.65;;;6.60;62.60;;;;;;5036688;28;20431;-88
2022/04/03 20:21:19;;;;;;;7.03;3.30;;;6.70;62.70;;;;;;5040541;28;20186;-92
2022/04/03 20:23:45;;;;;;;7.25;3.90;;;6.60;62.80;;;;;;5057111;28;20459;-91
2022/04/03 20:26:11;;;;;;;4.53;3.60;;;6.50;63.10;;;;;;5039018;28;20194;-91
2022/04/03 20:28:37;;;;;;;8.30;2.57;;;6.40;63.30;;;;;;5038954;28;20487;-91
2022/04/03 20:31:03;;;;;;;5.50;3.15;;;6.40;63.50;;;;;;5038112;28;20179;-90
2022/04/03 20:33:31;;;;;;;4.50;3.20;;;6.50;63.80;;;;;;5034490;28;20193;-91
2022/04/03 20:35:57;;;;;;;8.18;3.67;;;6.60;63.80;;;;;;5021035;28;20445;-90
2022/04/03 20:38:24;;;;;;;9.00;6.68;;;6.50;64.10;;;;;;5025126;28;20188;-91
2022/04/03 20:40:50;;;;;;;11.13;6.50;;;6.40;64.20;;;;;;5026414;28;20232;-91
2022/04/03 20:43:16;;;;;;;11.77;3.97;;;6.40;64.50;;;;;;5021443;28;20244;-93
2022/04/03 20:45:42;;;;;;;5.27;3.57;;;6.40;64.70;;;;;;5039992;28;20169;-93
2022/04/03 20:48:08;;;;;;;8.03;4.03;;;6.40;64.80;;;;;;5039485;28;20412;-93
2022/04/03 20:50:35;;;;;;;5.18;3.70;;;6.40;64.90;;;;;;5038593;28;20435;-93
2022/04/03 20:53:01;;;;;;;8.05;4.30;;;6.40;65.00;;;;;;5038168;28;20217;-93
2022/04/03 20:55:28;;;;;;;5.28;4.03;;;6.40;65.00;;;;;;5020438;28;20216;-93
2022/04/03 20:57:54;;;;;;;7.35;3.85;;;6.40;65.00;;;;;;5040212;28;20254;-93
2022/04/03 21:00:21;;;;;;;5.85;4.60;;;6.50;65.10;;;;;;5022020;28;20552;-93
2022/04/03 21:02:48;;;;;;;6.18;4.47;;;6.40;65.20;;;;;;5022490;28;20359;-92
2022/04/03 21:05:25;;;;;;;10.55;4.55;;;6.30;65.40;;;;;;5022973;28;20638;-93
2022/04/03 21:07:51;;;;;;;6.30;3.80;;;6.20;65.50;;;;;;5022635;28;20228;-92
2022/04/03 21:10:17;;;;;;;7.47;4.67;;;6.20;65.70;;;;;;5007992;28;20182;-92
2022/04/03 21:12:43;;;;;;;6.88;3.88;;;6.20;65.70;;;;;;5027725;28;20449;-92
2022/04/03 21:15:09;;;;;;;6.90;4.33;;;6.30;65.80;;;;;;5031196;28;20208;-92
2022/04/03 21:17:35;;;;;;;10.32;5.05;;;6.30;65.80;;;;;;5031515;28;20223;-93
2022/04/03 21:20:01;;;;;;;5.97;4.10;;;6.30;65.80;;;;;;5029340;28;20210;-93
2022/04/03 21:22:27;;;;;;;10.50;3.95;;;6.20;65.90;;;;;;5047465;28;20540;-94
2022/04/03 21:24:53;;;;;;;7.83;4.33;;;6.20;66.00;;;;;;5030849;28;20650;-94
2022/04/03 21:27:19;;;;;;;8.70;4.47;;;6.10;66.10;;;;;;5035318;28;20424;-93
2022/04/03 21:29:45;;;;;;;7.13;3.83;;;6.10;66.40;;;;;;5035881;28;20182;-94
2022/04/03 21:32:11;;;;;;;12.03;3.93;;;6.10;66.40;;;;;;5030418;28;20833;-94
2022/04/03 21:34:36;;;;;;;9.00;5.87;;;6.10;66.40;;;;;;5028922;28;20420;-94
2022/04/03 21:37:03;;;;;;;10.20;4.83;;;6.10;66.40;;;;;;5035239;28;20202;-94
2022/04/03 21:39:29;;;;;;;7.05;5.05;;;6.10;66.50;;;;;;5037907;28;20424;-94
2022/04/03 21:41:56;;;;;;;7.65;4.80;;;6.00;66.50;;;;;;5035862;28;20343;-93
2022/04/03 21:44:23;;;;;;;7.93;4.95;;;6.00;66.50;;;;;;5032580;28;20263;-94
2022/04/03 21:46:49;;;;;;;5.68;5.07;;;6.00;66.60;;;;;;5031629;28;20178;-94
2022/04/03 21:49:15;;;;;;;8.98;5.70;;;6.00;66.60;;;;;;5041282;28;20652;-92
2022/04/03 21:51:45;;;;;;;9.15;5.70;;;6.00;66.50;;;;;;5030457;28;20207;-92
2022/04/03 21:54:12;;;;;;;10.68;5.05;;;6.10;66.60;;;;;;5033794;28;20186;-94
2022/04/03 21:56:39;;;;;;;10.10;4.65;;;6.00;66.40;;;;;;5018733;28;20248;-93
2022/04/03 21:59:05;;;;;;;7.32;4.43;;;5.90;66.50;;;;;;5030718;28;20193;-93
2022/04/03 22:01:31;;;;;;;9.32;5.20;;;5.90;66.60;;;;;;5027972;28;20174;-94
2022/04/03 22:03:58;;;;;;;10.48;6.30;;;5.90;66.70;;;;;;5043114;28;20228;-94
2022/04/03 22:06:24;;;;;;;6.63;5.15;;;5.90;66.60;;;;;;5026973;28;20178;-94
2022/04/03 22:08:50;;;;;;;8.55;6.35;;;5.90;66.60;;;;;;5008357;28;20170;-93
2022/04/03 22:11:16;;;;;;;13.10;4.32;;;5.90;66.70;;;;;;5021513;28;20186;-93
2022/04/03 22:13:42;;;;;;;8.10;5.00;;;5.80;66.60;;;;;;5021111;28;20267;-92
2022/04/03 22:16:09;;;;;;;7.07;5.18;;;5.80;66.70;;;;;;5020483;28;20429;-92
2022/04/03 22:18:35;;;;;;;8.95;5.60;;;5.90;66.70;;;;;;5020619;28;20293;-92
2022/04/03 22:21:01;;;;;;;10.40;5.53;;;5.80;66.50;;;;;;5021031;28;20209;-92
2022/04/03 22:23:27;;;;;;;7.95;6.53;;;5.80;66.60;;;;;;5021925;28;20232;-92
2022/04/03 22:25:54;;;;;;;10.03;5.20;;;5.80;66.60;;;;;;5021586;28;20205;-92
2022/04/03 22:28:20;;;;;;;7.57;5.20;;;5.80;66.60;;;;;;5026712;28;20416;-91
2022/04/03 22:30:46;;;;;;;9.60;6.17;;;5.80;66.50;;;;;;5039220;28;20405;-91
2022/04/03 22:33:12;;;;;;;15.38;5.00;;;6.00;66.60;;;;;;5042508;28;20444;-91
2022/04/03 22:35:39;;;;;;;6.90;5.15;;;6.00;66.20;;;;;;5042814;28;20186;-91
2022/04/03 22:38:05;;;;;;;8.05;5.20;;;5.90;66.30;;;;;;5043064;28;20166;-92
2022/04/03 22:40:31;;;;;;;7.75;5.65;;;5.90;66.40;;;;;;5060147;28;20170;-92
2022/04/03 22:42:57;;;;;;;9.43;6.65;;;5.90;66.50;;;;;;5042462;28;20225;-92
2022/04/03 22:45:23;;;;;;;9.10;5.77;;;5.80;66.60;;;;;;5042732;28;20181;-90
2022/04/03 22:47:49;;;;;;;8.27;6.30;;;5.80;66.70;;;;;;5055199;28;20212;-91
2022/04/03 22:50:16;;;;;;;9.60;6.18;;;5.80;66.70;;;;;;5022995;28;20236;-91
2022/04/03 22:52:43;;;;;;;10.23;6.32;;;5.90;66.80;;;;;;5019543;28;20222;-91
2022/04/03 22:55:09;;;;;;;10.30;6.43;;;6.00;66.60;;;;;;5019566;28;20231;-91
2022/04/03 22:57:37;;;;;;;12.00;5.85;;;5.90;66.60;;;;;;5020959;28;20524;-91
2022/04/03 23:00:08;;;;;;;10.07;5.68;;;5.80;66.60;;;;;;5021541;28;20173;-91
2022/04/03 23:02:34;;;;;;;8.02;5.28;;;5.70;66.90;;;;;;5031065;28;20221;-91
2022/04/03 23:05:00;;;;;;;10.13;6.10;;;5.60;67.00;;;;;;5056780;28;20174;-91
2022/04/03 23:07:26;;;;;;;11.30;6.50;;;5.70;67.30;;;;;;5037446;28;20254;-91
2022/04/03 23:09:52;;;;;;;10.18;6.70;;;5.60;67.20;;;;;;5025454;28;20987;-91
2022/04/03 23:12:18;;;;;;;8.77;5.70;;;5.60;67.20;;;;;;5019362;28;20201;-91
2022/04/03 23:14:44;;;;;;;8.15;5.65;;;5.70;67.20;;;;;;5018378;28;20185;-91
2022/04/03 23:17:10;;;;;;;7.37;4.90;;;5.60;67.10;;;;;;5022023;28;20190;-90
2022/04/03 23:19:35;;;;;;;14.77;6.60;;;5.50;67.10;;;;;;5043972;28;20201;-92
2022/04/03 23:22:02;;;;;;;8.55;5.47;;;5.40;67.30;;;;;;5033893;28;20212;-92
2022/04/03 23:24:27;;;;;;;8.13;5.40;;;5.40;67.40;;;;;;5034369;28;20193;-92
2022/04/03 23:26:53;;;;;;;8.60;5.33;;;5.40;67.50;;;;;;5029527;28;20680;-90
2022/04/03 23:29:19;;;;;;;9.03;5.40;;;5.50;67.60;;;;;;5026972;28;20280;-91
2022/04/03 23:31:45;;;;;;;9.30;5.13;;;5.60;67.20;;;;;;5022055;28;20188;-90
2022/04/03 23:34:11;;;;;;;8.90;5.07;;;5.40;67.20;;;;;;5020668;28;20265;-90